sensor_id;sensor_type;location;lat;lon;timestamp;P1;durP1;ratioP1;P2;durP2;ratioP2
10303;SDS011;5197;48.152;8.590;2023-11-18T00:00:00;10.80;;;6.73;;
10303;SDS011;5197;48.152;8.590;2023-11-18T00:02:28;9.17;;;6.57;;
10303;SDS011;5197;48.152;8.590;2023-11-18T00:04:55;6.67;;;5.97;;
10303;SDS011;5197;48.152;8.590;2023-11-18T00:07:22;8.57;;;5.80;;
10303;SDS011;5197;48.152;8.590;2023-11-18T00:09:50;7.00;;;6.13;;
10303;SDS011;5197;48.152;8.590;2023-11-18T00:12:17;7.47;;;6.20;;
10303;SDS011;5197;48.152;8.590;2023-11-18T00:14:44;7.57;;;5.67;;
10303;SDS011;5197;48.152;8.590;2023-11-18T00:17:12;7.73;;;5.90;;
10303;SDS011;5197;48.152;8.590;2023-11-18T00:19:39;7.33;;;5.70;;
10303;SDS011;5197;48.152;8.590;2023-11-18T00:22:06;7.03;;;5.97;;
10303;SDS011;5197;48.152;8.590;2023-11-18T00:24:33;6.27;;;5.33;;
10303;SDS011;5197;48.152;8.590;2023-11-18T00:27:03;6.13;;;5.53;;
10303;SDS011;5197;48.152;8.590;2023-11-18T00:29:35;6.23;;;5.30;;
10303;SDS011;5197;48.152;8.590;2023-11-18T00:32:04;5.93;;;5.30;;
10303;SDS011;5197;48.152;8.590;2023-11-18T00:34:31;7.83;;;5.27;;
10303;SDS011;5197;48.152;8.590;2023-11-18T00:36:58;6.13;;;5.40;;
10303;SDS011;5197;48.152;8.590;2023-11-18T00:39:25;7.17;;;5.83;;
10303;SDS011;5197;48.152;8.590;2023-11-18T00:41:53;5.10;;;4.60;;
10303;SDS011;5197;48.152;8.590;2023-11-18T00:44:22;6.17;;;4.67;;
10303;SDS011;5197;48.152;8.590;2023-11-18T00:46:49;5.73;;;5.07;;
10303;SDS011;5197;48.152;8.590;2023-11-18T00:49:16;4.77;;;4.27;;
10303;SDS011;5197;48.152;8.590;2023-11-18T00:51:44;6.47;;;5.63;;
10303;SDS011;5197;48.152;8.590;2023-11-18T00:54:11;7.80;;;6.10;;
10303;SDS011;5197;48.152;8.590;2023-11-18T00:56:39;12.83;;;6.67;;
10303;SDS011;5197;48.152;8.590;2023-11-18T00:59:06;17.87;;;7.40;;
10303;SDS011;5197;48.152;8.590;2023-11-18T01:01:33;15.40;;;7.40;;
10303;SDS011;5197;48.152;8.590;2023-11-18T01:04:01;17.83;;;7.00;;
10303;SDS011;5197;48.152;8.590;2023-11-18T01:06:28;15.77;;;6.27;;
10303;SDS011;5197;48.152;8.590;2023-11-18T01:08:55;34.23;;;7.30;;
10303;SDS011;5197;48.152;8.590;2023-11-18T01:11:22;40.70;;;6.73;;
10303;SDS011;5197;48.152;8.590;2023-11-18T01:13:49;28.37;;;6.33;;
10303;SDS011;5197;48.152;8.590;2023-11-18T01:16:16;15.77;;;5.90;;
10303;SDS011;5197;48.152;8.590;2023-11-18T01:18:43;10.70;;;5.73;;
10303;SDS011;5197;48.152;8.590;2023-11-18T01:21:11;10.73;;;6.00;;
10303;SDS011;5197;48.152;8.590;2023-11-18T01:23:38;8.23;;;5.80;;
10303;SDS011;5197;48.152;8.590;2023-11-18T01:26:11;45.80;;;5.90;;
10303;SDS011;5197;48.152;8.590;2023-11-18T01:28:41;12.43;;;4.87;;
10303;SDS011;5197;48.152;8.590;2023-11-18T01:31:10;6.03;;;4.80;;
10303;SDS011;5197;48.152;8.590;2023-11-18T01:33:40;7.03;;;5.20;;
10303;SDS011;5197;48.152;8.590;2023-11-18T01:36:08;5.73;;;4.83;;
10303;SDS011;5197;48.152;8.590;2023-11-18T01:38:36;6.97;;;5.10;;
10303;SDS011;5197;48.152;8.590;2023-11-18T01:41:06;7.80;;;5.27;;
10303;SDS011;5197;48.152;8.590;2023-11-18T01:43:35;6.60;;;5.17;;
10303;SDS011;5197;48.152;8.590;2023-11-18T01:46:03;7.00;;;5.57;;
10303;SDS011;5197;48.152;8.590;2023-11-18T01:48:37;9.30;;;6.07;;
10303;SDS011;5197;48.152;8.590;2023-11-18T01:51:06;7.53;;;5.70;;
10303;SDS011;5197;48.152;8.590;2023-11-18T01:53:36;8.47;;;6.03;;
10303;SDS011;5197;48.152;8.590;2023-11-18T01:56:06;7.37;;;5.90;;
10303;SDS011;5197;48.152;8.590;2023-11-18T01:58:35;7.70;;;5.30;;
10303;SDS011;5197;48.152;8.590;2023-11-18T02:01:03;6.23;;;5.27;;
10303;SDS011;5197;48.152;8.590;2023-11-18T02:03:35;8.20;;;5.60;;
10303;SDS011;5197;48.152;8.590;2023-11-18T02:06:02;7.77;;;5.50;;
10303;SDS011;5197;48.152;8.590;2023-11-18T02:08:33;6.93;;;5.17;;
10303;SDS011;5197;48.152;8.590;2023-11-18T02:11:05;6.53;;;4.90;;
10303;SDS011;5197;48.152;8.590;2023-11-18T02:13:51;7.63;;;4.87;;
10303;SDS011;5197;48.152;8.590;2023-11-18T02:16:25;6.27;;;4.63;;
10303;SDS011;5197;48.152;8.590;2023-11-18T02:18:54;5.33;;;4.53;;
10303;SDS011;5197;48.152;8.590;2023-11-18T02:21:22;8.27;;;4.93;;
10303;SDS011;5197;48.152;8.590;2023-11-18T02:23:49;6.73;;;5.13;;
10303;SDS011;5197;48.152;8.590;2023-11-18T02:26:20;6.37;;;4.90;;
10303;SDS011;5197;48.152;8.590;2023-11-18T02:28:48;5.40;;;4.67;;
10303;SDS011;5197;48.152;8.590;2023-11-18T02:31:16;9.93;;;4.67;;
10303;SDS011;5197;48.152;8.590;2023-11-18T02:34:02;6.63;;;4.87;;
10303;SDS011;5197;48.152;8.590;2023-11-18T02:36:46;5.77;;;5.17;;
10303;SDS011;5197;48.152;8.590;2023-11-18T02:39:20;5.97;;;4.70;;
10303;SDS011;5197;48.152;8.590;2023-11-18T02:41:51;7.27;;;4.80;;
10303;SDS011;5197;48.152;8.590;2023-11-18T02:44:22;4.60;;;4.13;;
10303;SDS011;5197;48.152;8.590;2023-11-18T02:46:52;5.57;;;4.13;;
10303;SDS011;5197;48.152;8.590;2023-11-18T02:49:19;5.23;;;4.17;;
10303;SDS011;5197;48.152;8.590;2023-11-18T02:51:46;6.83;;;4.50;;
10303;SDS011;5197;48.152;8.590;2023-11-18T02:54:14;5.00;;;4.47;;
10303;SDS011;5197;48.152;8.590;2023-11-18T02:56:43;6.27;;;4.30;;
10303;SDS011;5197;48.152;8.590;2023-11-18T02:59:09;6.10;;;4.77;;
10303;SDS011;5197;48.152;8.590;2023-11-18T03:01:37;5.67;;;4.90;;
10303;SDS011;5197;48.152;8.590;2023-11-18T03:04:07;5.63;;;4.23;;
10303;SDS011;5197;48.152;8.590;2023-11-18T03:06:36;6.33;;;5.07;;
10303;SDS011;5197;48.152;8.590;2023-11-18T03:09:03;5.83;;;4.60;;
10303;SDS011;5197;48.152;8.590;2023-11-18T03:11:33;7.50;;;4.93;;
10303;SDS011;5197;48.152;8.590;2023-11-18T03:14:00;6.90;;;4.77;;
10303;SDS011;5197;48.152;8.590;2023-11-18T03:16:28;5.23;;;4.60;;
10303;SDS011;5197;48.152;8.590;2023-11-18T03:18:55;7.33;;;4.27;;
10303;SDS011;5197;48.152;8.590;2023-11-18T03:21:22;7.30;;;4.73;;
10303;SDS011;5197;48.152;8.590;2023-11-18T03:23:49;6.13;;;4.70;;
10303;SDS011;5197;48.152;8.590;2023-11-18T03:26:16;5.13;;;4.23;;
10303;SDS011;5197;48.152;8.590;2023-11-18T03:28:43;5.00;;;3.90;;
10303;SDS011;5197;48.152;8.590;2023-11-18T03:31:10;5.77;;;4.20;;
10303;SDS011;5197;48.152;8.590;2023-11-18T03:33:38;5.90;;;4.00;;
10303;SDS011;5197;48.152;8.590;2023-11-18T03:36:05;5.13;;;3.90;;
10303;SDS011;5197;48.152;8.590;2023-11-18T03:38:33;5.63;;;3.70;;
10303;SDS011;5197;48.152;8.590;2023-11-18T03:41:00;4.57;;;3.87;;
10303;SDS011;5197;48.152;8.590;2023-11-18T03:43:27;5.53;;;3.87;;
10303;SDS011;5197;48.152;8.590;2023-11-18T03:45:54;6.23;;;3.60;;
10303;SDS011;5197;48.152;8.590;2023-11-18T03:48:23;5.20;;;4.23;;
10303;SDS011;5197;48.152;8.590;2023-11-18T03:50:50;5.23;;;4.30;;
10303;SDS011;5197;48.152;8.590;2023-11-18T03:53:17;4.73;;;3.80;;
10303;SDS011;5197;48.152;8.590;2023-11-18T03:55:44;5.73;;;4.73;;
10303;SDS011;5197;48.152;8.590;2023-11-18T03:58:11;4.73;;;3.83;;
10303;SDS011;5197;48.152;8.590;2023-11-18T04:00:38;4.57;;;4.07;;
10303;SDS011;5197;48.152;8.590;2023-11-18T04:03:05;5.47;;;4.87;;
10303;SDS011;5197;48.152;8.590;2023-11-18T04:05:33;7.57;;;4.23;;
10303;SDS011;5197;48.152;8.590;2023-11-18T04:08:01;4.60;;;4.10;;
10303;SDS011;5197;48.152;8.590;2023-11-18T04:10:28;4.37;;;3.60;;
10303;SDS011;5197;48.152;8.590;2023-11-18T04:12:55;10.53;;;5.47;;
10303;SDS011;5197;48.152;8.590;2023-11-18T04:15:23;11.53;;;6.97;;
10303;SDS011;5197;48.152;8.590;2023-11-18T04:17:50;7.43;;;5.33;;
10303;SDS011;5197;48.152;8.590;2023-11-18T04:20:18;8.03;;;6.10;;
10303;SDS011;5197;48.152;8.590;2023-11-18T04:22:45;7.87;;;4.43;;
10303;SDS011;5197;48.152;8.590;2023-11-18T04:25:13;4.60;;;4.20;;
10303;SDS011;5197;48.152;8.590;2023-11-18T04:27:40;5.43;;;4.70;;
10303;SDS011;5197;48.152;8.590;2023-11-18T04:30:12;4.77;;;4.27;;
10303;SDS011;5197;48.152;8.590;2023-11-18T04:32:39;6.43;;;4.10;;
10303;SDS011;5197;48.152;8.590;2023-11-18T04:35:10;4.57;;;4.17;;
10303;SDS011;5197;48.152;8.590;2023-11-18T04:37:38;7.07;;;4.53;;
10303;SDS011;5197;48.152;8.590;2023-11-18T04:40:10;4.53;;;3.87;;
10303;SDS011;5197;48.152;8.590;2023-11-18T04:42:38;4.03;;;3.60;;
10303;SDS011;5197;48.152;8.590;2023-11-18T04:45:06;5.37;;;3.73;;
10303;SDS011;5197;48.152;8.590;2023-11-18T04:47:36;3.40;;;3.10;;
10303;SDS011;5197;48.152;8.590;2023-11-18T04:50:05;3.87;;;3.50;;
10303;SDS011;5197;48.152;8.590;2023-11-18T04:52:34;4.30;;;3.90;;
10303;SDS011;5197;48.152;8.590;2023-11-18T04:55:03;5.43;;;4.67;;
10303;SDS011;5197;48.152;8.590;2023-11-18T04:57:32;6.03;;;5.33;;
10303;SDS011;5197;48.152;8.590;2023-11-18T04:59:59;8.87;;;5.27;;
10303;SDS011;5197;48.152;8.590;2023-11-18T05:02:37;7.07;;;5.03;;
10303;SDS011;5197;48.152;8.590;2023-11-18T05:05:05;5.60;;;4.60;;
10303;SDS011;5197;48.152;8.590;2023-11-18T05:07:32;5.80;;;5.10;;
10303;SDS011;5197;48.152;8.590;2023-11-18T05:10:01;5.37;;;4.73;;
10303;SDS011;5197;48.152;8.590;2023-11-18T05:12:29;6.47;;;5.07;;
10303;SDS011;5197;48.152;8.590;2023-11-18T05:14:56;5.70;;;4.47;;
10303;SDS011;5197;48.152;8.590;2023-11-18T05:17:24;4.93;;;4.27;;
10303;SDS011;5197;48.152;8.590;2023-11-18T05:19:53;8.23;;;5.07;;
10303;SDS011;5197;48.152;8.590;2023-11-18T05:22:20;5.33;;;4.40;;
10303;SDS011;5197;48.152;8.590;2023-11-18T05:24:47;5.80;;;3.87;;
10303;SDS011;5197;48.152;8.590;2023-11-18T05:27:15;5.23;;;4.30;;
10303;SDS011;5197;48.152;8.590;2023-11-18T05:29:43;7.17;;;4.10;;
10303;SDS011;5197;48.152;8.590;2023-11-18T05:32:20;4.33;;;3.93;;
10303;SDS011;5197;48.152;8.590;2023-11-18T05:34:51;5.40;;;3.97;;
10303;SDS011;5197;48.152;8.590;2023-11-18T05:37:21;4.97;;;4.17;;
10303;SDS011;5197;48.152;8.590;2023-11-18T05:39:49;4.70;;;3.90;;
10303;SDS011;5197;48.152;8.590;2023-11-18T05:42:25;6.13;;;4.37;;
10303;SDS011;5197;48.152;8.590;2023-11-18T05:44:56;6.57;;;4.50;;
10303;SDS011;5197;48.152;8.590;2023-11-18T05:47:25;6.17;;;5.03;;
10303;SDS011;5197;48.152;8.590;2023-11-18T05:49:54;8.23;;;5.53;;
10303;SDS011;5197;48.152;8.590;2023-11-18T05:52:22;6.87;;;5.47;;
10303;SDS011;5197;48.152;8.590;2023-11-18T05:54:49;6.40;;;5.07;;
10303;SDS011;5197;48.152;8.590;2023-11-18T05:57:16;6.13;;;4.97;;
10303;SDS011;5197;48.152;8.590;2023-11-18T05:59:45;8.63;;;5.20;;
10303;SDS011;5197;48.152;8.590;2023-11-18T06:02:14;7.87;;;5.10;;
10303;SDS011;5197;48.152;8.590;2023-11-18T06:04:45;6.70;;;5.27;;
10303;SDS011;5197;48.152;8.590;2023-11-18T06:07:12;9.63;;;5.73;;
10303;SDS011;5197;48.152;8.590;2023-11-18T06:09:40;14.07;;;6.30;;
10303;SDS011;5197;48.152;8.590;2023-11-18T06:12:10;13.40;;;6.20;;
10303;SDS011;5197;48.152;8.590;2023-11-18T06:14:39;8.23;;;6.43;;
10303;SDS011;5197;48.152;8.590;2023-11-18T06:17:08;8.07;;;5.77;;
10303;SDS011;5197;48.152;8.590;2023-11-18T06:19:35;6.70;;;4.67;;
10303;SDS011;5197;48.152;8.590;2023-11-18T06:22:03;4.50;;;4.07;;
10303;SDS011;5197;48.152;8.590;2023-11-18T06:24:32;5.33;;;4.57;;
10303;SDS011;5197;48.152;8.590;2023-11-18T06:26:59;4.53;;;4.13;;
10303;SDS011;5197;48.152;8.590;2023-11-18T06:29:26;5.70;;;4.10;;
10303;SDS011;5197;48.152;8.590;2023-11-18T06:31:54;8.50;;;4.83;;
10303;SDS011;5197;48.152;8.590;2023-11-18T06:34:21;4.33;;;3.93;;
10303;SDS011;5197;48.152;8.590;2023-11-18T06:36:50;7.90;;;4.70;;
10303;SDS011;5197;48.152;8.590;2023-11-18T06:39:17;6.27;;;4.80;;
10303;SDS011;5197;48.152;8.590;2023-11-18T06:41:46;4.80;;;4.30;;
10303;SDS011;5197;48.152;8.590;2023-11-18T06:44:17;5.83;;;4.80;;
10303;SDS011;5197;48.152;8.590;2023-11-18T06:46:50;5.73;;;4.77;;
10303;SDS011;5197;48.152;8.590;2023-11-18T06:49:17;6.37;;;4.47;;
10303;SDS011;5197;48.152;8.590;2023-11-18T06:51:45;5.83;;;4.80;;
10303;SDS011;5197;48.152;8.590;2023-11-18T06:54:12;6.97;;;4.87;;
10303;SDS011;5197;48.152;8.590;2023-11-18T06:56:40;7.67;;;5.40;;
10303;SDS011;5197;48.152;8.590;2023-11-18T06:59:12;9.00;;;6.50;;
10303;SDS011;5197;48.152;8.590;2023-11-18T07:01:42;6.43;;;5.40;;
10303;SDS011;5197;48.152;8.590;2023-11-18T07:04:12;5.00;;;4.43;;
10303;SDS011;5197;48.152;8.590;2023-11-18T07:06:42;6.83;;;4.97;;
10303;SDS011;5197;48.152;8.590;2023-11-18T07:09:11;7.33;;;5.63;;
10303;SDS011;5197;48.152;8.590;2023-11-18T07:11:45;8.53;;;6.07;;
10303;SDS011;5197;48.152;8.590;2023-11-18T07:14:14;12.83;;;9.37;;
10303;SDS011;5197;48.152;8.590;2023-11-18T07:16:42;16.83;;;11.77;;
10303;SDS011;5197;48.152;8.590;2023-11-18T07:19:10;17.70;;;10.87;;
10303;SDS011;5197;48.152;8.590;2023-11-18T07:21:44;10.07;;;6.60;;
10303;SDS011;5197;48.152;8.590;2023-11-18T07:24:11;10.77;;;5.63;;
10303;SDS011;5197;48.152;8.590;2023-11-18T07:26:38;8.03;;;5.93;;
10303;SDS011;5197;48.152;8.590;2023-11-18T07:29:06;7.33;;;5.73;;
10303;SDS011;5197;48.152;8.590;2023-11-18T07:31:36;8.67;;;5.20;;
10303;SDS011;5197;48.152;8.590;2023-11-18T07:34:03;7.10;;;4.90;;
10303;SDS011;5197;48.152;8.590;2023-11-18T07:36:34;5.57;;;4.33;;
10303;SDS011;5197;48.152;8.590;2023-11-18T07:39:03;6.70;;;5.53;;
10303;SDS011;5197;48.152;8.590;2023-11-18T07:41:31;6.73;;;5.80;;
10303;SDS011;5197;48.152;8.590;2023-11-18T07:44:03;6.73;;;5.90;;
10303;SDS011;5197;48.152;8.590;2023-11-18T07:46:31;6.13;;;5.33;;
10303;SDS011;5197;48.152;8.590;2023-11-18T07:48:59;7.97;;;5.20;;
10303;SDS011;5197;48.152;8.590;2023-11-18T07:51:29;10.27;;;6.07;;
10303;SDS011;5197;48.152;8.590;2023-11-18T07:53:56;6.20;;;5.20;;
10303;SDS011;5197;48.152;8.590;2023-11-18T07:56:23;6.90;;;5.40;;
10303;SDS011;5197;48.152;8.590;2023-11-18T07:58:50;6.67;;;5.10;;
10303;SDS011;5197;48.152;8.590;2023-11-18T08:01:19;6.20;;;5.10;;
10303;SDS011;5197;48.152;8.590;2023-11-18T08:03:48;5.13;;;4.63;;
10303;SDS011;5197;48.152;8.590;2023-11-18T08:06:18;4.63;;;4.23;;
10303;SDS011;5197;48.152;8.590;2023-11-18T08:08:45;7.10;;;5.37;;
10303;SDS011;5197;48.152;8.590;2023-11-18T08:11:14;5.67;;;4.90;;
10303;SDS011;5197;48.152;8.590;2023-11-18T08:13:41;5.67;;;4.70;;
10303;SDS011;5197;48.152;8.590;2023-11-18T08:16:09;5.70;;;5.00;;
10303;SDS011;5197;48.152;8.590;2023-11-18T08:18:38;8.00;;;6.20;;
10303;SDS011;5197;48.152;8.590;2023-11-18T08:21:05;10.43;;;7.27;;
10303;SDS011;5197;48.152;8.590;2023-11-18T08:23:33;9.80;;;7.20;;
10303;SDS011;5197;48.152;8.590;2023-11-18T08:26:00;7.63;;;6.40;;
10303;SDS011;5197;48.152;8.590;2023-11-18T08:28:28;6.20;;;5.60;;
10303;SDS011;5197;48.152;8.590;2023-11-18T08:30:59;7.80;;;5.70;;
10303;SDS011;5197;48.152;8.590;2023-11-18T08:33:27;7.40;;;6.03;;
10303;SDS011;5197;48.152;8.590;2023-11-18T08:35:56;8.63;;;6.30;;
10303;SDS011;5197;48.152;8.590;2023-11-18T08:38:28;7.40;;;5.77;;
10303;SDS011;5197;48.152;8.590;2023-11-18T08:40:56;6.90;;;5.60;;
10303;SDS011;5197;48.152;8.590;2023-11-18T08:43:24;7.63;;;5.63;;
10303;SDS011;5197;48.152;8.590;2023-11-18T08:45:52;5.33;;;4.83;;
10303;SDS011;5197;48.152;8.590;2023-11-18T08:48:20;4.63;;;3.83;;
10303;SDS011;5197;48.152;8.590;2023-11-18T08:50:49;5.47;;;3.97;;
10303;SDS011;5197;48.152;8.590;2023-11-18T08:53:18;8.50;;;6.77;;
10303;SDS011;5197;48.152;8.590;2023-11-18T08:55:45;13.60;;;8.33;;
10303;SDS011;5197;48.152;8.590;2023-11-18T08:58:20;6.57;;;5.30;;
10303;SDS011;5197;48.152;8.590;2023-11-18T09:00:56;4.93;;;4.30;;
10303;SDS011;5197;48.152;8.590;2023-11-18T09:03:41;5.87;;;4.87;;
10303;SDS011;5197;48.152;8.590;2023-11-18T09:06:11;5.17;;;4.67;;
10303;SDS011;5197;48.152;8.590;2023-11-18T09:08:49;4.83;;;3.90;;
10303;SDS011;5197;48.152;8.590;2023-11-18T09:11:23;5.40;;;4.53;;
10303;SDS011;5197;48.152;8.590;2023-11-18T09:13:55;4.47;;;4.07;;
10303;SDS011;5197;48.152;8.590;2023-11-18T09:16:27;4.10;;;3.70;;
10303;SDS011;5197;48.152;8.590;2023-11-18T09:18:59;3.60;;;3.30;;
10303;SDS011;5197;48.152;8.590;2023-11-18T09:21:29;3.20;;;2.67;;
10303;SDS011;5197;48.152;8.590;2023-11-18T09:23:59;3.33;;;3.13;;
10303;SDS011;5197;48.152;8.590;2023-11-18T09:26:26;3.23;;;2.93;;
10303;SDS011;5197;48.152;8.590;2023-11-18T09:28:57;3.03;;;2.83;;
10303;SDS011;5197;48.152;8.590;2023-11-18T09:31:24;3.13;;;2.03;;
10303;SDS011;5197;48.152;8.590;2023-11-18T09:33:51;5.20;;;4.30;;
10303;SDS011;5197;48.152;8.590;2023-11-18T09:36:19;2.70;;;2.50;;
10303;SDS011;5197;48.152;8.590;2023-11-18T09:38:49;3.10;;;2.80;;
10303;SDS011;5197;48.152;8.590;2023-11-18T09:41:16;3.43;;;2.43;;
10303;SDS011;5197;48.152;8.590;2023-11-18T09:43:44;3.13;;;2.67;;
10303;SDS011;5197;48.152;8.590;2023-11-18T09:46:13;9.90;;;3.07;;
10303;SDS011;5197;48.152;8.590;2023-11-18T09:48:43;3.10;;;2.80;;
10303;SDS011;5197;48.152;8.590;2023-11-18T09:51:23;4.13;;;2.90;;
10303;SDS011;5197;48.152;8.590;2023-11-18T09:53:51;4.70;;;3.10;;
10303;SDS011;5197;48.152;8.590;2023-11-18T09:56:28;3.13;;;2.93;;
10303;SDS011;5197;48.152;8.590;2023-11-18T09:59:32;3.57;;;3.27;;
10303;SDS011;5197;48.152;8.590;2023-11-18T10:02:11;4.20;;;3.17;;
10303;SDS011;5197;48.152;8.590;2023-11-18T10:04:40;4.30;;;3.20;;
10303;SDS011;5197;48.152;8.590;2023-11-18T10:07:08;4.03;;;3.67;;
10303;SDS011;5197;48.152;8.590;2023-11-18T10:09:37;6.70;;;4.53;;
10303;SDS011;5197;48.152;8.590;2023-11-18T10:12:08;6.33;;;5.63;;
10303;SDS011;5197;48.152;8.590;2023-11-18T10:14:41;5.90;;;5.07;;
10303;SDS011;5197;48.152;8.590;2023-11-18T10:17:10;5.90;;;4.63;;
10303;SDS011;5197;48.152;8.590;2023-11-18T10:19:54;6.57;;;5.13;;
10303;SDS011;5197;48.152;8.590;2023-11-18T10:22:24;5.33;;;4.83;;
10303;SDS011;5197;48.152;8.590;2023-11-18T10:24:54;5.30;;;4.80;;
10303;SDS011;5197;48.152;8.590;2023-11-18T10:27:23;5.77;;;5.23;;
10303;SDS011;5197;48.152;8.590;2023-11-18T10:29:57;7.53;;;5.10;;
10303;SDS011;5197;48.152;8.590;2023-11-18T10:32:32;6.87;;;5.93;;
10303;SDS011;5197;48.152;8.590;2023-11-18T10:35:06;8.47;;;7.17;;
10303;SDS011;5197;48.152;8.590;2023-11-18T10:37:36;6.27;;;5.67;;
10303;SDS011;5197;48.152;8.590;2023-11-18T10:40:10;6.10;;;5.60;;
10303;SDS011;5197;48.152;8.590;2023-11-18T10:42:41;6.27;;;5.67;;
10303;SDS011;5197;48.152;8.590;2023-11-18T10:45:13;5.87;;;5.30;;
10303;SDS011;5197;48.152;8.590;2023-11-18T10:47:50;6.97;;;5.70;;
10303;SDS011;5197;48.152;8.590;2023-11-18T10:50:19;9.50;;;6.67;;
10303;SDS011;5197;48.152;8.590;2023-11-18T10:52:48;6.80;;;6.13;;
10303;SDS011;5197;48.152;8.590;2023-11-18T10:55:15;7.73;;;6.27;;
10303;SDS011;5197;48.152;8.590;2023-11-18T10:57:45;7.57;;;6.23;;
10303;SDS011;5197;48.152;8.590;2023-11-18T11:00:13;6.23;;;5.40;;
10303;SDS011;5197;48.152;8.590;2023-11-18T11:02:41;7.60;;;5.73;;
10303;SDS011;5197;48.152;8.590;2023-11-18T11:05:09;8.53;;;7.17;;
10303;SDS011;5197;48.152;8.590;2023-11-18T11:07:47;8.80;;;7.60;;
10303;SDS011;5197;48.152;8.590;2023-11-18T11:10:16;11.00;;;7.43;;
10303;SDS011;5197;48.152;8.590;2023-11-18T11:12:48;9.93;;;7.10;;
10303;SDS011;5197;48.152;8.590;2023-11-18T11:15:22;7.80;;;6.40;;
10303;SDS011;5197;48.152;8.590;2023-11-18T11:17:57;6.80;;;5.67;;
10303;SDS011;5197;48.152;8.590;2023-11-18T11:20:39;8.23;;;6.30;;
10303;SDS011;5197;48.152;8.590;2023-11-18T11:23:14;6.80;;;6.10;;
10303;SDS011;5197;48.152;8.590;2023-11-18T11:28:42;8.20;;;7.30;;
10303;SDS011;5197;48.152;8.590;2023-11-18T11:34:16;7.77;;;6.10;;
10303;SDS011;5197;48.152;8.590;2023-11-18T11:36:50;8.60;;;6.37;;
10303;SDS011;5197;48.152;8.590;2023-11-18T11:39:19;6.73;;;6.03;;
10303;SDS011;5197;48.152;8.590;2023-11-18T11:41:56;7.17;;;6.23;;
10303;SDS011;5197;48.152;8.590;2023-11-18T11:44:24;7.77;;;6.87;;
10303;SDS011;5197;48.152;8.590;2023-11-18T11:47:00;10.47;;;6.70;;
10303;SDS011;5197;48.152;8.590;2023-11-18T11:49:33;8.43;;;6.73;;
10303;SDS011;5197;48.152;8.590;2023-11-18T11:52:16;7.93;;;5.97;;
10303;SDS011;5197;48.152;8.590;2023-11-18T11:55:23;12.27;;;8.43;;
10303;SDS011;5197;48.152;8.590;2023-11-18T11:57:56;7.63;;;6.43;;
10303;SDS011;5197;48.152;8.590;2023-11-18T12:00:27;6.93;;;6.33;;
10303;SDS011;5197;48.152;8.590;2023-11-18T12:03:01;7.10;;;6.33;;
10303;SDS011;5197;48.152;8.590;2023-11-18T12:05:31;6.70;;;6.00;;
10303;SDS011;5197;48.152;8.590;2023-11-18T12:08:00;7.40;;;6.47;;
10303;SDS011;5197;48.152;8.590;2023-11-18T12:10:28;7.07;;;6.27;;
10303;SDS011;5197;48.152;8.590;2023-11-18T12:13:07;8.60;;;6.83;;
10303;SDS011;5197;48.152;8.590;2023-11-18T12:15:50;7.77;;;6.57;;
10303;SDS011;5197;48.152;8.590;2023-11-18T12:18:21;6.63;;;5.87;;
10303;SDS011;5197;48.152;8.590;2023-11-18T12:20:51;6.80;;;5.83;;
10303;SDS011;5197;48.152;8.590;2023-11-18T12:23:24;9.00;;;5.70;;
10303;SDS011;5197;48.152;8.590;2023-11-18T12:25:53;7.27;;;5.63;;
10303;SDS011;5197;48.152;8.590;2023-11-18T12:28:31;9.93;;;5.07;;
10303;SDS011;5197;48.152;8.590;2023-11-18T12:31:02;5.57;;;5.07;;
10303;SDS011;5197;48.152;8.590;2023-11-18T12:41:43;5.90;;;5.03;;
10303;SDS011;5197;48.152;8.590;2023-11-18T12:46:57;6.40;;;5.20;;
10303;SDS011;5197;48.152;8.590;2023-11-18T12:49:39;7.23;;;6.50;;
10303;SDS011;5197;48.152;8.590;2023-11-18T12:52:10;7.23;;;6.27;;
10303;SDS011;5197;48.152;8.590;2023-11-18T12:54:41;11.83;;;7.13;;
10303;SDS011;5197;48.152;8.590;2023-11-18T12:57:10;6.73;;;4.60;;
10303;SDS011;5197;48.152;8.590;2023-11-18T12:59:41;5.47;;;4.20;;
10303;SDS011;5197;48.152;8.590;2023-11-18T13:02:09;5.47;;;5.03;;
10303;SDS011;5197;48.152;8.590;2023-11-18T13:04:45;5.33;;;4.80;;
10303;SDS011;5197;48.152;8.590;2023-11-18T13:07:16;5.83;;;5.23;;
10303;SDS011;5197;48.152;8.590;2023-11-18T13:09:45;6.00;;;5.20;;
10303;SDS011;5197;48.152;8.590;2023-11-18T13:12:12;7.30;;;4.70;;
10303;SDS011;5197;48.152;8.590;2023-11-18T13:14:46;5.87;;;5.20;;
10303;SDS011;5197;48.152;8.590;2023-11-18T13:17:17;5.23;;;4.13;;
10303;SDS011;5197;48.152;8.590;2023-11-18T13:19:44;5.50;;;4.50;;
10303;SDS011;5197;48.152;8.590;2023-11-18T13:22:12;5.17;;;4.63;;
10303;SDS011;5197;48.152;8.590;2023-11-18T13:24:41;4.47;;;3.87;;
10303;SDS011;5197;48.152;8.590;2023-11-18T13:27:18;4.90;;;4.37;;
10303;SDS011;5197;48.152;8.590;2023-11-18T13:29:47;4.73;;;4.33;;
10303;SDS011;5197;48.152;8.590;2023-11-18T13:32:19;5.03;;;4.53;;
10303;SDS011;5197;48.152;8.590;2023-11-18T13:34:50;6.17;;;3.90;;
10303;SDS011;5197;48.152;8.590;2023-11-18T13:37:18;3.93;;;3.53;;
10303;SDS011;5197;48.152;8.590;2023-11-18T13:39:53;3.53;;;3.20;;
10303;SDS011;5197;48.152;8.590;2023-11-18T13:42:24;3.70;;;3.30;;
10303;SDS011;5197;48.152;8.590;2023-11-18T13:45:09;3.30;;;2.83;;
10303;SDS011;5197;48.152;8.590;2023-11-18T13:47:59;2.37;;;2.17;;
10303;SDS011;5197;48.152;8.590;2023-11-18T13:50:27;2.33;;;2.13;;
10303;SDS011;5197;48.152;8.590;2023-11-18T13:52:55;2.67;;;2.47;;
10303;SDS011;5197;48.152;8.590;2023-11-18T13:55:23;3.30;;;2.73;;
10303;SDS011;5197;48.152;8.590;2023-11-18T13:57:55;2.80;;;2.50;;
10303;SDS011;5197;48.152;8.590;2023-11-18T14:00:25;2.70;;;2.40;;
10303;SDS011;5197;48.152;8.590;2023-11-18T14:02:58;2.80;;;2.60;;
10303;SDS011;5197;48.152;8.590;2023-11-18T14:05:33;2.67;;;2.57;;
10303;SDS011;5197;48.152;8.590;2023-11-18T14:08:00;4.63;;;2.63;;
10303;SDS011;5197;48.152;8.590;2023-11-18T14:10:36;2.70;;;2.60;;
10303;SDS011;5197;48.152;8.590;2023-11-18T14:13:06;3.17;;;2.87;;
10303;SDS011;5197;48.152;8.590;2023-11-18T14:15:35;3.47;;;2.90;;
10303;SDS011;5197;48.152;8.590;2023-11-18T14:18:02;3.40;;;3.10;;
10303;SDS011;5197;48.152;8.590;2023-11-18T14:20:31;3.30;;;3.00;;
10303;SDS011;5197;48.152;8.590;2023-11-18T14:22:58;3.23;;;3.03;;
10303;SDS011;5197;48.152;8.590;2023-11-18T14:25:25;3.90;;;3.40;;
10303;SDS011;5197;48.152;8.590;2023-11-18T14:27:53;3.37;;;2.97;;
10303;SDS011;5197;48.152;8.590;2023-11-18T14:30:20;2.97;;;2.77;;
10303;SDS011;5197;48.152;8.590;2023-11-18T14:32:53;4.63;;;3.77;;
10303;SDS011;5197;48.152;8.590;2023-11-18T14:35:21;3.40;;;3.20;;
10303;SDS011;5197;48.152;8.590;2023-11-18T14:37:52;3.30;;;3.10;;
10303;SDS011;5197;48.152;8.590;2023-11-18T14:40:19;3.43;;;3.20;;
10303;SDS011;5197;48.152;8.590;2023-11-18T14:42:51;4.67;;;3.17;;
10303;SDS011;5197;48.152;8.590;2023-11-18T14:45:18;3.30;;;3.10;;
10303;SDS011;5197;48.152;8.590;2023-11-18T14:47:46;3.10;;;2.90;;
10303;SDS011;5197;48.152;8.590;2023-11-18T14:50:18;2.90;;;2.70;;
10303;SDS011;5197;48.152;8.590;2023-11-18T14:52:47;4.10;;;2.90;;
10303;SDS011;5197;48.152;8.590;2023-11-18T14:55:18;3.10;;;2.90;;
10303;SDS011;5197;48.152;8.590;2023-11-18T14:57:45;2.67;;;2.47;;
10303;SDS011;5197;48.152;8.590;2023-11-18T15:00:13;3.30;;;2.70;;
10303;SDS011;5197;48.152;8.590;2023-11-18T15:02:48;3.03;;;2.73;;
10303;SDS011;5197;48.152;8.590;2023-11-18T15:05:18;3.00;;;2.73;;
10303;SDS011;5197;48.152;8.590;2023-11-18T15:07:48;3.90;;;3.00;;
10303;SDS011;5197;48.152;8.590;2023-11-18T15:10:22;3.07;;;2.43;;
10303;SDS011;5197;48.152;8.590;2023-11-18T15:12:56;2.80;;;2.60;;
10303;SDS011;5197;48.152;8.590;2023-11-18T15:15:26;2.63;;;2.43;;
10303;SDS011;5197;48.152;8.590;2023-11-18T15:18:02;3.17;;;2.90;;
10303;SDS011;5197;48.152;8.590;2023-11-18T15:20:32;3.23;;;3.03;;
10303;SDS011;5197;48.152;8.590;2023-11-18T15:22:59;4.90;;;3.20;;
10303;SDS011;5197;48.152;8.590;2023-11-18T15:25:27;4.97;;;3.60;;
10303;SDS011;5197;48.152;8.590;2023-11-18T15:27:54;5.33;;;3.80;;
10303;SDS011;5197;48.152;8.590;2023-11-18T15:30:22;6.07;;;4.03;;
10303;SDS011;5197;48.152;8.590;2023-11-18T15:32:53;5.10;;;3.60;;